sensor_id;sensor_type;location;lat;lon;timestamp;pressure;altitude;pressure_sealevel;temperature;humidity
44457;BME280;30159;49.316;8.558;2022-07-29T00:01:08;100119.81;;;23.12;64.41
44457;BME280;30159;49.316;8.558;2022-07-29T00:03:35;100114.63;;;23.07;65.03
44457;BME280;30159;49.316;8.558;2022-07-29T00:06:02;100123.78;;;23.14;65.25
44457;BME280;30159;49.316;8.558;2022-07-29T00:08:28;100120.56;;;23.09;65.58
44457;BME280;30159;49.316;8.558;2022-07-29T00:10:56;100109.88;;;23.04;65.62
44457;BME280;30159;49.316;8.558;2022-07-29T00:13:23;100108.56;;;22.98;66.27
44457;BME280;30159;49.316;8.558;2022-07-29T00:15:49;100102.06;;;23.06;66.20
44457;BME280;30159;49.316;8.558;2022-07-29T00:18:16;100094.28;;;22.88;67.15
44457;BME280;30159;49.316;8.558;2022-07-29T00:20:43;100097.44;;;22.87;67.49
44457;BME280;30159;49.316;8.558;2022-07-29T00:23:09;100094.97;;;22.82;67.58
44457;BME280;30159;49.316;8.558;2022-07-29T00:25:36;100083.06;;;22.74;68.22
44457;BME280;30159;49.316;8.558;2022-07-29T00:28:04;100103.66;;;22.84;68.25
44457;BME280;30159;49.316;8.558;2022-07-29T00:30:32;100097.69;;;22.78;69.07
44457;BME280;30159;49.316;8.558;2022-07-29T00:32:58;100098.00;;;22.73;69.44
44457;BME280;30159;49.316;8.558;2022-07-29T00:35:25;100105.88;;;22.75;70.31
44457;BME280;30159;49.316;8.558;2022-07-29T00:38:10;100027.78;;;22.29;70.74
44457;BME280;30159;49.316;8.558;2022-07-29T00:40:37;100102.75;;;22.76;70.64
44457;BME280;30159;49.316;8.558;2022-07-29T00:43:05;100104.31;;;22.77;70.46
44457;BME280;30159;49.316;8.558;2022-07-29T00:45:31;100098.44;;;22.75;71.23
44457;BME280;30159;49.316;8.558;2022-07-29T00:47:58;100056.38;;;22.48;71.92
44457;BME280;30159;49.316;8.558;2022-07-29T00:50:25;100080.44;;;22.55;72.74
44457;BME280;30159;49.316;8.558;2022-07-29T00:52:52;100102.28;;;22.70;73.20
44457;BME280;30159;49.316;8.558;2022-07-29T00:55:19;100102.66;;;22.69;73.05
44457;BME280;30159;49.316;8.558;2022-07-29T00:57:46;100083.53;;;22.53;74.97
44457;BME280;30159;49.316;8.558;2022-07-29T01:00:17;100092.25;;;22.59;74.82
44457;BME280;30159;49.316;8.558;2022-07-29T01:02:44;100084.44;;;22.61;74.81
44457;BME280;30159;49.316;8.558;2022-07-29T01:05:14;100073.63;;;22.48;75.88
44457;BME280;30159;49.316;8.558;2022-07-29T01:07:41;100083.50;;;22.49;76.21
44457;BME280;30159;49.316;8.558;2022-07-29T01:10:10;100077.84;;;22.42;76.64
44457;BME280;30159;49.316;8.558;2022-07-29T01:12:38;100076.19;;;22.38;76.76
44457;BME280;30159;49.316;8.558;2022-07-29T01:15:07;100069.38;;;22.28;77.36
44457;BME280;30159;49.316;8.558;2022-07-29T01:17:43;100062.34;;;22.30;77.96
44457;BME280;30159;49.316;8.558;2022-07-29T01:20:14;100046.13;;;22.22;77.56
44457;BME280;30159;49.316;8.558;2022-07-29T01:23:01;100069.81;;;22.30;77.68
44457;BME280;30159;49.316;8.558;2022-07-29T01:28:52;100069.91;;;22.37;77.08
44457;BME280;30159;49.316;8.558;2022-07-29T01:31:28;100071.53;;;22.38;77.31
44457;BME280;30159;49.316;8.558;2022-07-29T01:34:01;100055.63;;;22.28;77.57
44457;BME280;30159;49.316;8.558;2022-07-29T01:36:33;100059.25;;;22.32;76.78
44457;BME280;30159;49.316;8.558;2022-07-29T01:39:05;100064.81;;;22.36;77.33
44457;BME280;30159;49.316;8.558;2022-07-29T01:41:35;100064.31;;;22.30;77.81
44457;BME280;30159;49.316;8.558;2022-07-29T01:44:11;100066.75;;;22.35;77.99
44457;BME280;30159;49.316;8.558;2022-07-29T01:46:42;100058.75;;;22.26;78.04
44457;BME280;30159;49.316;8.558;2022-07-29T01:49:14;100057.22;;;22.29;78.80
44457;BME280;30159;49.316;8.558;2022-07-29T01:51:46;100059.25;;;22.32;78.38
44457;BME280;30159;49.316;8.558;2022-07-29T01:54:18;100062.09;;;22.39;78.03
44457;BME280;30159;49.316;8.558;2022-07-29T01:56:47;100059.72;;;22.38;78.27
44457;BME280;30159;49.316;8.558;2022-07-29T01:59:18;100064.81;;;22.36;78.70
44457;BME280;30159;49.316;8.558;2022-07-29T02:01:47;100073.06;;;22.36;78.86
44457;BME280;30159;49.316;8.558;2022-07-29T02:04:15;100067.56;;;22.36;78.83
44457;BME280;30159;49.316;8.558;2022-07-29T02:06:44;100064.31;;;22.30;79.71
44457;BME280;30159;49.316;8.558;2022-07-29T02:09:13;100066.69;;;22.32;79.23
44457;BME280;30159;49.316;8.558;2022-07-29T02:11:53;100064.31;;;22.30;79.84
44457;BME280;30159;49.316;8.558;2022-07-29T02:14:23;100065.47;;;22.29;79.93
44457;BME280;30159;49.316;8.558;2022-07-29T02:16:53;100073.28;;;22.27;80.25
44457;BME280;30159;49.316;8.558;2022-07-29T02:19:22;100072.00;;;22.21;79.94
44457;BME280;30159;49.316;8.558;2022-07-29T02:21:52;100071.84;;;22.14;80.54
44457;BME280;30159;49.316;8.558;2022-07-29T02:24:20;100071.84;;;22.14;80.69
44457;BME280;30159;49.316;8.558;2022-07-29T02:26:48;100064.78;;;22.13;81.12
44457;BME280;30159;49.316;8.558;2022-07-29T02:29:16;100055.56;;;22.01;81.72
44457;BME280;30159;49.316;8.558;2022-07-29T02:31:48;100067.84;;;22.07;81.65
44457;BME280;30159;49.316;8.558;2022-07-29T02:34:17;100072.06;;;22.05;81.92
44457;BME280;30159;49.316;8.558;2022-07-29T02:36:44;100070.16;;;22.05;81.95
44457;BME280;30159;49.316;8.558;2022-07-29T02:39:12;100066.22;;;22.06;81.99
44457;BME280;30159;49.316;8.558;2022-07-29T02:41:42;100070.03;;;21.98;82.72
44457;BME280;30159;49.316;8.558;2022-07-29T02:44:14;100067.94;;;21.92;82.35
44457;BME280;30159;49.316;8.558;2022-07-29T02:46:50;100067.50;;;21.89;82.86
44457;BME280;30159;49.316;8.558;2022-07-29T02:49:22;100074.22;;;21.92;83.14
44457;BME280;30159;49.316;8.558;2022-07-29T02:51:55;100058.63;;;21.77;83.67
44457;BME280;30159;49.316;8.558;2022-07-29T02:54:27;100068.16;;;21.83;83.66
44457;BME280;30159;49.316;8.558;2022-07-29T02:56:59;100079.06;;;21.79;83.84
44457;BME280;30159;49.316;8.558;2022-07-29T02:59:27;100072.72;;;21.75;83.80
44457;BME280;30159;49.316;8.558;2022-07-29T03:01:59;100086.06;;;21.77;83.54
44457;BME280;30159;49.316;8.558;2022-07-29T03:04:27;100074.66;;;21.75;84.03
44457;BME280;30159;49.316;8.558;2022-07-29T03:06:56;100081.63;;;21.68;84.55
44457;BME280;30159;49.316;8.558;2022-07-29T03:09:25;100079.59;;;21.65;84.50
44457;BME280;30159;49.316;8.558;2022-07-29T03:11:52;100078.34;;;21.63;84.89
44457;BME280;30159;49.316;8.558;2022-07-29T03:14:20;100064.03;;;21.54;85.01
44457;BME280;30159;49.316;8.558;2022-07-29T03:16:48;100055.63;;;21.43;85.45
44457;BME280;30159;49.316;8.558;2022-07-29T03:19:17;100077.28;;;21.48;86.17
44457;BME280;30159;49.316;8.558;2022-07-29T03:21:44;100076.53;;;21.51;85.79
44457;BME280;30159;49.316;8.558;2022-07-29T03:24:24;100082.47;;;21.53;85.43
44457;BME280;30159;49.316;8.558;2022-07-29T03:26:51;100070.28;;;21.51;85.49
44457;BME280;30159;49.316;8.558;2022-07-29T03:29:17;100079.72;;;21.53;85.93
44457;BME280;30159;49.316;8.558;2022-07-29T03:31:44;100060.38;;;21.46;85.86
44457;BME280;30159;49.316;8.558;2022-07-29T03:34:10;100071.00;;;21.48;86.35
44457;BME280;30159;49.316;8.558;2022-07-29T03:36:38;100069.59;;;21.38;87.08
44457;BME280;30159;49.316;8.558;2022-07-29T03:39:05;100074.22;;;21.34;87.33
44457;BME280;30159;49.316;8.558;2022-07-29T03:41:33;100066.41;;;21.36;86.88
44457;BME280;30159;49.316;8.558;2022-07-29T03:44:02;100070.47;;;21.42;86.64
44457;BME280;30159;49.316;8.558;2022-07-29T03:46:30;100076.66;;;21.39;86.88
44457;BME280;30159;49.316;8.558;2022-07-29T03:48:59;100073.78;;;21.32;86.98
44457;BME280;30159;49.316;8.558;2022-07-29T03:51:27;100075.00;;;21.34;87.11
44457;BME280;30159;49.316;8.558;2022-07-29T03:53:55;100086.06;;;21.38;87.04
44457;BME280;30159;49.316;8.558;2022-07-29T03:56:23;100083.31;;;21.38;87.16
44457;BME280;30159;49.316;8.558;2022-07-29T03:58:51;100079.19;;;21.28;87.40
44457;BME280;30159;49.316;8.558;2022-07-29T04:01:19;100080.44;;;21.31;87.38
44457;BME280;30159;49.316;8.558;2022-07-29T04:03:46;100082.72;;;21.29;87.77
44457;BME280;30159;49.316;8.558;2022-07-29T04:06:13;100077.69;;;21.31;87.47
44457;BME280;30159;49.316;8.558;2022-07-29T04:08:39;100082.72;;;21.29;87.44
44457;BME280;30159;49.316;8.558;2022-07-29T04:11:08;100085.75;;;21.23;87.85
44457;BME280;30159;49.316;8.558;2022-07-29T04:13:34;100092.38;;;21.22;88.00
44457;BME280;30159;49.316;8.558;2022-07-29T04:16:01;100095.56;;;21.24;87.82
44457;BME280;30159;49.316;8.558;2022-07-29T04:18:27;100098.38;;;21.28;87.58
44457;BME280;30159;49.316;8.558;2022-07-29T04:20:54;100102.28;;;21.27;87.67
44457;BME280;30159;49.316;8.558;2022-07-29T04:23:21;100103.81;;;21.24;87.84
44457;BME280;30159;49.316;8.558;2022-07-29T04:25:47;100099.91;;;21.25;88.06
44457;BME280;30159;49.316;8.558;2022-07-29T04:28:15;100099.91;;;21.25;88.02
44457;BME280;30159;49.316;8.558;2022-07-29T04:30:42;100103.06;;;21.27;88.09
44457;BME280;30159;49.316;8.558;2022-07-29T04:33:09;100110.88;;;21.25;88.25
44457;BME280;30159;49.316;8.558;2022-07-29T04:35:37;100078.97;;;21.17;87.58
44457;BME280;30159;49.316;8.558;2022-07-29T04:38:05;100110.50;;;21.43;88.05
44457;BME280;30159;49.316;8.558;2022-07-29T04:40:32;100069.56;;;21.18;87.87
44457;BME280;30159;49.316;8.558;2022-07-29T04:42:59;100094.91;;;21.47;87.54
44457;BME280;30159;49.316;8.558;2022-07-29T04:45:28;100058.19;;;21.36;86.94
44457;BME280;30159;49.316;8.558;2022-07-29T04:47:55;100102.28;;;21.82;85.78
44457;BME280;30159;49.316;8.558;2022-07-29T04:50:22;100096.53;;;21.91;85.61
44457;BME280;30159;49.316;8.558;2022-07-29T04:52:49;100098.31;;;22.02;85.11
44457;BME280;30159;49.316;8.558;2022-07-29T04:55:15;100107.72;;;22.21;83.16
44457;BME280;30159;49.316;8.558;2022-07-29T04:57:42;100102.34;;;22.28;83.01
44457;BME280;30159;49.316;8.558;2022-07-29T05:00:09;100105.28;;;22.39;82.77
44457;BME280;30159;49.316;8.558;2022-07-29T05:02:37;100112.25;;;22.56;82.23
44457;BME280;30159;49.316;8.558;2022-07-29T05:05:04;100108.03;;;22.62;81.27
44457;BME280;30159;49.316;8.558;2022-07-29T05:07:31;100111.38;;;22.75;80.88
44457;BME280;30159;49.316;8.558;2022-07-29T05:09:58;100104.56;;;22.91;80.36
44457;BME280;30159;49.316;8.558;2022-07-29T05:12:24;100115.31;;;23.27;78.57
44457;BME280;30159;49.316;8.558;2022-07-29T05:14:51;100114.53;;;23.90;76.13
44457;BME280;30159;49.316;8.558;2022-07-29T05:17:18;100116.56;;;24.79;73.29
44457;BME280;30159;49.316;8.558;2022-07-29T05:19:46;100106.44;;;25.78;68.71
44457;BME280;30159;49.316;8.558;2022-07-29T05:22:13;100100.31;;;26.63;65.83
44457;BME280;30159;49.316;8.558;2022-07-29T05:24:39;100115.00;;;27.95;62.29
44457;BME280;30159;49.316;8.558;2022-07-29T05:27:06;100101.19;;;29.30;58.48
44457;BME280;30159;49.316;8.558;2022-07-29T05:29:33;100115.22;;;30.62;54.91
44457;BME280;30159;49.316;8.558;2022-07-29T05:31:59;100121.31;;;31.64;53.29
44457;BME280;30159;49.316;8.558;2022-07-29T05:34:26;100120.13;;;32.18;51.52
44457;BME280;30159;49.316;8.558;2022-07-29T05:36:54;100121.72;;;32.85;50.35
44457;BME280;30159;49.316;8.558;2022-07-29T05:39:22;100127.22;;;33.47;49.23
44457;BME280;30159;49.316;8.558;2022-07-29T05:41:48;100117.34;;;34.35;47.22
44457;BME280;30159;49.316;8.558;2022-07-29T05:44:15;100120.09;;;33.58;48.01
44457;BME280;30159;49.316;8.558;2022-07-29T05:46:42;100118.91;;;33.98;47.41
44457;BME280;30159;49.316;8.558;2022-07-29T05:49:08;100100.06;;;34.50;46.09
44457;BME280;30159;49.316;8.558;2022-07-29T05:51:35;100115.41;;;34.45;46.00
44457;BME280;30159;49.316;8.558;2022-07-29T05:54:03;100115.63;;;34.76;45.66
44457;BME280;30159;49.316;8.558;2022-07-29T05:56:30;100117.69;;;33.99;46.53
44457;BME280;30159;49.316;8.558;2022-07-29T05:58:57;100123.16;;;34.03;46.69
44457;BME280;30159;49.316;8.558;2022-07-29T06:01:23;100110.53;;;33.85;46.95
44457;BME280;30159;49.316;8.558;2022-07-29T06:03:50;100126.81;;;33.61;47.53
44457;BME280;30159;49.316;8.558;2022-07-29T06:06:17;100127.75;;;33.42;47.42
44457;BME280;30159;49.316;8.558;2022-07-29T06:08:43;100135.06;;;32.28;49.92
44457;BME280;30159;49.316;8.558;2022-07-29T06:11:11;100012.66;;;30.61;51.07
44457;BME280;30159;49.316;8.558;2022-07-29T06:13:38;100137.56;;;30.82;52.25
44457;BME280;30159;49.316;8.558;2022-07-29T06:16:05;100141.25;;;30.29;53.99
44457;BME280;30159;49.316;8.558;2022-07-29T06:18:31;100138.72;;;29.80;54.91
44457;BME280;30159;49.316;8.558;2022-07-29T06:20:58;100139.41;;;30.93;53.27
44457;BME280;30159;49.316;8.558;2022-07-29T06:23:24;100129.94;;;31.90;50.52
44457;BME280;30159;49.316;8.558;2022-07-29T06:25:51;100141.19;;;32.39;50.13
44457;BME280;30159;49.316;8.558;2022-07-29T06:28:19;100134.00;;;33.33;48.59
44457;BME280;30159;49.316;8.558;2022-07-29T06:30:46;100145.78;;;33.95;47.26
44457;BME280;30159;49.316;8.558;2022-07-29T06:33:16;100146.97;;;32.65;49.06
44457;BME280;30159;49.316;8.558;2022-07-29T06:35:43;100146.53;;;31.97;50.83
44457;BME280;30159;49.316;8.558;2022-07-29T06:38:10;100147.03;;;31.12;52.42
44457;BME280;30159;49.316;8.558;2022-07-29T06:40:41;100149.88;;;30.85;53.24
44457;BME280;30159;49.316;8.558;2022-07-29T06:43:22;100162.59;;;30.35;53.99
44457;BME280;30159;49.316;8.558;2022-07-29T06:45:49;100156.88;;;29.88;55.40
44457;BME280;30159;49.316;8.558;2022-07-29T06:48:16;100155.28;;;29.18;56.85
44457;BME280;30159;49.316;8.558;2022-07-29T06:50:42;100158.69;;;28.92;57.25
44457;BME280;30159;49.316;8.558;2022-07-29T06:53:09;100148.22;;;29.10;57.80
44457;BME280;30159;49.316;8.558;2022-07-29T06:55:36;100091.25;;;29.63;55.75
44457;BME280;30159;49.316;8.558;2022-07-29T06:58:03;100160.13;;;30.41;55.11
44457;BME280;30159;49.316;8.558;2022-07-29T07:00:31;100084.56;;;29.57;55.54
44457;BME280;30159;49.316;8.558;2022-07-29T07:02:57;100156.19;;;30.38;55.21
44457;BME280;30159;49.316;8.558;2022-07-29T07:05:24;100162.03;;;30.71;55.30
44457;BME280;30159;49.316;8.558;2022-07-29T07:07:51;100040.44;;;30.14;54.83
44457;BME280;30159;49.316;8.558;2022-07-29T07:10:17;100160.78;;;30.49;55.36
44457;BME280;30159;49.316;8.558;2022-07-29T07:12:44;100163.44;;;30.32;56.14
44457;BME280;30159;49.316;8.558;2022-07-29T07:15:10;100163.50;;;30.25;56.11
44457;BME280;30159;49.316;8.558;2022-07-29T07:17:38;100162.94;;;31.55;54.33
44457;BME280;30159;49.316;8.558;2022-07-29T07:20:06;100166.81;;;32.34;52.47
44457;BME280;30159;49.316;8.558;2022-07-29T07:22:33;100174.09;;;33.13;50.44
44457;BME280;30159;49.316;8.558;2022-07-29T07:25:00;100145.50;;;32.07;51.44
44457;BME280;30159;49.316;8.558;2022-07-29T07:27:26;100165.97;;;30.97;54.06
44457;BME280;30159;49.316;8.558;2022-07-29T07:29:53;100162.25;;;30.33;55.81
44457;BME280;30159;49.316;8.558;2022-07-29T07:32:20;100155.88;;;30.02;56.16
44457;BME280;30159;49.316;8.558;2022-07-29T07:34:48;100176.16;;;30.33;56.63
44457;BME280;30159;49.316;8.558;2022-07-29T07:37:14;100173.63;;;32.33;53.13
44457;BME280;30159;49.316;8.558;2022-07-29T07:39:41;100175.41;;;33.67;50.42
44457;BME280;30159;49.316;8.558;2022-07-29T07:42:08;100050.72;;;35.22;46.30
44457;BME280;30159;49.316;8.558;2022-07-29T07:44:36;100170.81;;;37.90;43.25
44457;BME280;30159;49.316;8.558;2022-07-29T07:47:03;100169.28;;;38.23;42.63
44457;BME280;30159;49.316;8.558;2022-07-29T07:49:30;100174.22;;;38.37;42.43
44457;BME280;30159;49.316;8.558;2022-07-29T07:51:57;100170.84;;;38.81;41.67
44457;BME280;30159;49.316;8.558;2022-07-29T07:54:24;100169.94;;;36.83;44.07
44457;BME280;30159;49.316;8.558;2022-07-29T07:56:51;100168.53;;;35.09;46.41
44457;BME280;30159;49.316;8.558;2022-07-29T07:59:17;100171.09;;;34.56;48.06
44457;BME280;30159;49.316;8.558;2022-07-29T08:01:44;100170.44;;;35.69;45.90
44457;BME280;30159;49.316;8.558;2022-07-29T08:04:10;100164.56;;;36.57;45.01
44457;BME280;30159;49.316;8.558;2022-07-29T08:06:37;100168.19;;;35.86;45.40
44457;BME280;30159;49.316;8.558;2022-07-29T08:09:05;100171.72;;;35.77;46.00
44457;BME280;30159;49.316;8.558;2022-07-29T08:11:32;100131.75;;;34.85;47.34
44457;BME280;30159;49.316;8.558;2022-07-29T08:13:59;100173.69;;;34.76;47.13
44457;BME280;30159;49.316;8.558;2022-07-29T08:16:26;100178.75;;;32.54;51.55
44457;BME280;30159;49.316;8.558;2022-07-29T08:18:53;100181.78;;;31.04;54.97
44457;BME280;30159;49.316;8.558;2022-07-29T08:21:23;100180.41;;;30.11;56.49
44457;BME280;30159;49.316;8.558;2022-07-29T08:23:50;100174.97;;;30.00;57.60
44457;BME280;30159;49.316;8.558;2022-07-29T08:26:21;100180.72;;;30.47;57.09
44457;BME280;30159;49.316;8.558;2022-07-29T08:28:48;100151.50;;;30.32;56.69
44457;BME280;30159;49.316;8.558;2022-07-29T08:31:16;100100.03;;;29.58;57.43
44457;BME280;30159;49.316;8.558;2022-07-29T08:33:43;100185.22;;;30.07;58.28
44457;BME280;30159;49.316;8.558;2022-07-29T08:36:09;100183.22;;;29.80;58.40
44457;BME280;30159;49.316;8.558;2022-07-29T08:38:38;100189.00;;;29.20;59.84
44457;BME280;30159;49.316;8.558;2022-07-29T08:41:04;100188.56;;;29.26;59.96
44457;BME280;30159;49.316;8.558;2022-07-29T08:43:33;100185.78;;;29.60;59.45
44457;BME280;30159;49.316;8.558;2022-07-29T08:46:02;100181.47;;;29.93;58.39
44457;BME280;30159;49.316;8.558;2022-07-29T08:48:29;100186.13;;;29.66;58.51
44457;BME280;30159;49.316;8.558;2022-07-29T08:50:56;100198.81;;;29.67;58.74
44457;BME280;30159;49.316;8.558;2022-07-29T08:53:26;100185.84;;;30.21;57.69
44457;BME280;30159;49.316;8.558;2022-07-29T08:55:56;100191.63;;;30.03;57.56
44457;BME280;30159;49.316;8.558;2022-07-29T08:58:24;100187.91;;;30.14;58.09
44457;BME280;30159;49.316;8.558;2022-07-29T09:00:54;100143.22;;;29.32;58.82
44457;BME280;30159;49.316;8.558;2022-07-29T09:03:23;100176.94;;;29.72;57.33
44457;BME280;30159;49.316;8.558;2022-07-29T09:05:51;100071.38;;;28.03;59.93
44457;BME280;30159;49.316;8.558;2022-07-29T09:08:18;100181.97;;;29.09;59.94
44457;BME280;30159;49.316;8.558;2022-07-29T09:10:45;100182.06;;;29.39;59.32
44457;BME280;30159;49.316;8.558;2022-07-29T09:13:12;100192.09;;;29.64;58.23
44457;BME280;30159;49.316;8.558;2022-07-29T09:15:38;100177.78;;;29.66;58.40
44457;BME280;30159;49.316;8.558;2022-07-29T09:18:06;100193.38;;;29.18;58.66
44457;BME280;30159;49.316;8.558;2022-07-29T09:20:33;100172.56;;;28.92;59.54
44457;BME280;30159;49.316;8.558;2022-07-29T09:23:14;100201.25;;;29.23;59.64
44457;BME280;30159;49.316;8.558;2022-07-29T09:25:41;100202.41;;;29.29;59.02
44457;BME280;30159;49.316;8.558;2022-07-29T09:28:08;100185.22;;;28.96;60.00
44457;BME280;30159;49.316;8.558;2022-07-29T09:30:35;100197.84;;;29.05;60.36
44457;BME280;30159;49.316;8.558;2022-07-29T09:33:03;100192.75;;;29.41;58.96
44457;BME280;30159;49.316;8.558;2022-07-29T09:35:31;100192.56;;;29.59;58.39
44457;BME280;30159;49.316;8.558;2022-07-29T09:38:09;100180.13;;;29.71;57.50
44457;BME280;30159;49.316;8.558;2022-07-29T09:40:37;100190.00;;;30.06;57.15
44457;BME280;30159;49.316;8.558;2022-07-29T09:43:10;100192.97;;;30.26;56.11
44457;BME280;30159;49.316;8.558;2022-07-29T09:45:37;100185.66;;;30.36;55.76
44457;BME280;30159;49.316;8.558;2022-07-29T09:48:13;100186.69;;;30.45;55.28
44457;BME280;30159;49.316;8.558;2022-07-29T09:50:42;100193.09;;;30.12;55.38
44457;BME280;30159;49.316;8.558;2022-07-29T09:53:10;100185.47;;;29.16;55.22
44457;BME280;30159;49.316;8.558;2022-07-29T09:55:48;100186.09;;;28.27;58.26
44457;BME280;30159;49.316;8.558;2022-07-29T09:58:16;100179.97;;;27.80;60.23
44457;BME280;30159;49.316;8.558;2022-07-29T10:00:43;100183.53;;;27.87;60.09
44457;BME280;30159;49.316;8.558;2022-07-29T10:03:10;100189.66;;;28.27;58.91
44457;BME280;30159;49.316;8.558;2022-07-29T10:05:38;100188.91;;;28.23;58.03
44457;BME280;30159;49.316;8.558;2022-07-29T10:08:07;100185.63;;;28.39;58.11
44457;BME280;30159;49.316;8.558;2022-07-29T10:10:36;100190.13;;;28.19;58.62
44457;BME280;30159;49.316;8.558;2022-07-29T10:13:04;100185.38;;;28.19;58.91
44457;BME280;30159;49.316;8.558;2022-07-29T10:15:34;100173.84;;;28.24;58.08
44457;BME280;30159;49.316;8.558;2022-07-29T10:18:04;100115.88;;;27.67;59.05
44457;BME280;30159;49.316;8.558;2022-07-29T10:20:32;100098.72;;;27.97;58.14
44457;BME280;30159;49.316;8.558;2022-07-29T10:22:59;100167.59;;;28.72;56.33
44457;BME280;30159;49.316;8.558;2022-07-29T10:25:27;100165.66;;;28.66;56.97
44457;BME280;30159;49.316;8.558;2022-07-29T10:27:54;100174.59;;;28.88;55.96
44457;BME280;30159;49.316;8.558;2022-07-29T10:30:22;100175.16;;;29.13;55.99
44457;BME280;30159;49.316;8.558;2022-07-29T10:33:10;100172.84;;;29.08;55.84
44457;BME280;30159;49.316;8.558;2022-07-29T10:35:54;100175.69;;;28.45;56.03
44457;BME280;30159;49.316;8.558;2022-07-29T10:38:37;100168.16;;;28.46;56.97
44457;BME280;30159;49.316;8.558;2022-07-29T10:41:19;100175.41;;;28.85;55.12
44457;BME280;30159;49.316;8.558;2022-07-29T10:43:59;100164.63;;;28.94;55.71
44457;BME280;30159;49.316;8.558;2022-07-29T10:46:27;100155.66;;;29.20;55.71
44457;BME280;30159;49.316;8.558;2022-07-29T10:49:11;100155.78;;;29.44;54.12
44457;BME280;30159;49.316;8.558;2022-07-29T10:52:00;100160.63;;;29.40;54.03
44457;BME280;30159;49.316;8.558;2022-07-29T10:54:48;100163.03;;;29.38;53.50
44457;BME280;30159;49.316;8.558;2022-07-29T10:57:20;100162.34;;;29.27;53.75
44457;BME280;30159;49.316;8.558;2022-07-29T10:59:52;100149.06;;;29.04;54.67
44457;BME280;30159;49.316;8.558;2022-07-29T11:02:45;100155.75;;;29.06;54.78
44457;BME280;30159;49.316;8.558;2022-07-29T11:05:17;100163.78;;;28.97;53.25
44457;BME280;30159;49.316;8.558;2022-07-29T11:08:16;100157.19;;;28.84;54.41
44457;BME280;30159;49.316;8.558;2022-07-29T11:10:45;100100.75;;;28.45;54.07
44457;BME280;30159;49.316;8.558;2022-07-29T11:13:45;100153.50;;;28.94;53.95
44457;BME280;30159;49.316;8.558;2022-07-29T11:16:13;100143.09;;;28.60;54.22
44457;BME280;30159;49.316;8.558;2022-07-29T11:21:44;100146.22;;;28.66;54.91
44457;BME280;30159;49.316;8.558;2022-07-29T11:24:13;100082.84;;;28.57;54.82
44457;BME280;30159;49.316;8.558;2022-07-29T11:26:40;100144.44;;;29.28;53.74
44457;BME280;30159;49.316;8.558;2022-07-29T11:29:16;100137.38;;;29.57;53.39
44457;BME280;30159;49.316;8.558;2022-07-29T11:31:46;100120.66;;;29.61;52.40
44457;BME280;30159;49.316;8.558;2022-07-29T11:34:24;100139.78;;;29.55;52.31
44457;BME280;30159;49.316;8.558;2022-07-29T11:37:23;100137.03;;;29.17;52.17
44457;BME280;30159;49.316;8.558;2022-07-29T11:40:12;100135.63;;;28.95;53.45
44457;BME280;30159;49.316;8.558;2022-07-29T11:42:43;100090.72;;;28.62;54.08
44457;BME280;30159;49.316;8.558;2022-07-29T11:45:18;100116.94;;;29.03;54.87
44457;BME280;30159;49.316;8.558;2022-07-29T11:47:51;100125.38;;;29.30;53.96
44457;BME280;30159;49.316;8.558;2022-07-29T11:50:30;100122.28;;;29.58;53.60
44457;BME280;30159;49.316;8.558;2022-07-29T11:52:59;100116.47;;;29.80;53.07
44457;BME280;30159;49.316;8.558;2022-07-29T11:55:26;100108.94;;;30.08;52.51
44457;BME280;30159;49.316;8.558;2022-07-29T11:57:55;100080.75;;;30.06;52.14
44457;BME280;30159;49.316;8.558;2022-07-29T12:00:27;100121.41;;;30.23;51.21
44457;BME280;30159;49.316;8.558;2022-07-29T12:02:55;100118.34;;;30.14;51.81
44457;BME280;30159;49.316;8.558;2022-07-29T12:05:31;100119.56;;;29.86;51.68
44457;BME280;30159;49.316;8.558;2022-07-29T12:08:06;100108.53;;;29.78;53.11
44457;BME280;30159;49.316;8.558;2022-07-29T12:10:33;100110.28;;;29.96;52.53
44457;BME280;30159;49.316;8.558;2022-07-29T12:13:00;100099.56;;;29.94;52.74
44457;BME280;30159;49.316;8.558;2022-07-29T12:15:26;100101.72;;;29.49;53.53
44457;BME280;30159;49.316;8.558;2022-07-29T12:17:53;100105.50;;;29.66;53.71
44457;BME280;30159;49.316;8.558;2022-07-29T12:20:24;100109.03;;;29.70;53.40
44457;BME280;30159;49.316;8.558;2022-07-29T12:22:51;100105.13;;;29.94;52.94
44457;BME280;30159;49.316;8.558;2022-07-29T12:25:22;100090.84;;;29.92;51.63
44457;BME280;30159;49.316;8.558;2022-07-29T12:28:00;100104.34;;;29.94;52.63
44457;BME280;30159;49.316;8.558;2022-07-29T12:30:41;100105.19;;;29.91;52.51
44457;BME280;30159;49.316;8.558;2022-07-29T12:33:16;100108.72;;;30.22;51.89
44457;BME280;30159;49.316;8.558;2022-07-29T12:35:46;100110.25;;;30.27;50.74
44457;BME280;30159;49.316;8.558;2022-07-29T12:38:14;100061.91;;;29.90;51.25
44457;BME280;30159;49.316;8.558;2022-07-29T12:40:43;100110.25;;;30.23;50.73
44457;BME280;30159;49.316;8.558;2022-07-29T12:43:12;100108.38;;;30.43;50.80
44457;BME280;30159;49.316;8.558;2022-07-29T12:45:41;100102.16;;;30.83;49.27
44457;BME280;30159;49.316;8.558;2022-07-29T12:48:09;100099.91;;;30.51;49.50
44457;BME280;30159;49.316;8.558;2022-07-29T12:50:37;100109.16;;;30.67;49.29
44457;BME280;30159;49.316;8.558;2022-07-29T12:53:17;100101.41;;;31.02;49.87
44457;BME280;30159;49.316;8.558;2022-07-29T12:55:47;100095.69;;;31.09;48.61
44457;BME280;30159;49.316;8.558;2022-07-29T12:58:26;100102.34;;;30.21;49.55
44457;BME280;30159;49.316;8.558;2022-07-29T13:01:05;100095.88;;;29.74;50.64
44457;BME280;30159;49.316;8.558;2022-07-29T13:03:46;100105.88;;;29.98;50.73
44457;BME280;30159;49.316;8.558;2022-07-29T13:06:34;100055.47;;;29.66;49.33
44457;BME280;30159;49.316;8.558;2022-07-29T13:09:04;100088.53;;;30.41;49.07